WETTERDATEN

HEUTE
Time Temp. Taup. r.Fe. Windrich Windstärke Windböe Druck 1h Prec. 24h Prec.
00:17 16.9 13.2 79 90 0.3 1.1 1018.1 0.0000 0.0000
00:27 16.8 13.3 80 90 0.3 1.1 1018.1 0.0000 0.0000
00:37 16.8 13.3 80 90 0.3 1.1 1018 0.0000 0.0000
00:47 16.8 13.3 80 90 0.3 1.1 1018.1 0.0000 0.0000
00:57 16.7 13.2 80 90 0.3 1.1 1018.2 0.0000 0.0000
01:07 16.6 13.3 81 90 0.3 1.1 1018.3 0.0000 0.0000
01:17 16.6 13.5 82 90 0.3 1.1 1018.3 0.0000 0.0000
01:28 16.5 13.4 82 71 0.8 1.1 1018.2 0.0000 0.0000
01:37 16.5 13.4 82 90 0.3 1.1 1018.3 0.0000 0.0000
01:47 16.5 13.6 83 90 0.3 1.1 1018.3 0.0000 0.0000
01:57 16.5 13.6 83 62 0.8 1.1 1018.3 0.0000 0.0000
02:08 16.4 13.5 83 90 0.3 1.1 1018.2 0.0000 0.0000
02:17 16.4 13.5 83 90 0.3 1.1 1018.1 0.0000 0.0000
02:27 16.4 13.5 83 76 0.8 1.4 1018 0.0000 0.0000
02:38 16.4 13.5 83 90 0.3 1.1 1018.2 0.0000 0.0000
02:48 16.4 13.5 83 90 0.3 1.1 1018.3 0.0000 0.0000
02:58 16.5 13.6 83 90 0.3 0.8 1018.2 0.0000 0.0000
03:08 16.5 13.6 83 90 0.3 1.1 1018.1 0.0000 0.0000
03:18 16.5 13.6 83 90 0.3 1.1 1018.2 0.0000 0.0000
03:28 16.5 13.6 83 90 0.3 1.1 1018.1 0.0000 0.0000
03:38 16.4 13.5 83 90 0.3 1.1 1018.1 0.0000 0.0000
03:49 16.4 13.5 83 90 0.3 1.1 1018.1 0.0000 0.0000
03:58 16.3 13.4 83 90 0.8 1.1 1018 0.0000 0.0000
04:08 16.2 13.3 83 90 0.3 1.1 1018.1 0.0000 0.0000
04:18 16 13.1 83 90 0.3 1.1 1018.1 0.0000 0.0000
04:29 15.8 13.1 84 90 0.3 1.1 1018 0.0000 0.0000
04:39 15.5 12.8 84 90 0.3 0.8 1017.9 0.0000 0.0000
04:48 15.3 12.6 84 90 0.3 0.8 1017.9 0.0000 0.0000
04:59 15 12.5 85 90 0.3 1.1 1018.1 0.0000 0.0000
05:09 14.9 12.4 85 90 0.3 1.1 1018 0.0000 0.0000
05:19 14.6 12.3 86 90 0.3 1.1 1018 0.0000 0.0000
05:29 14.5 12.4 87 90 0.3 1.1 1018.1 0.0000 0.0000
05:39 14.4 12.3 87 90 0.3 0.8 1018.1 0.0000 0.0000
05:49 14.3 12.2 87 90 0.3 0.8 1018.2 0.0000 0.0000
05:59 14.3 12.3 88 90 0.3 1.1 1018.2 0.0000 0.0000
06:10 14.4 12.4 88 90 0.3 1.1 1018.2 0.0000 0.0000
06:20 14.4 12.4 88 90 0.3 1.1 1018.3 0.0000 0.0000
06:29 14.4 12.6 89 90 0.3 1.1 1018.3 0.0000 0.0000
06:39 14.5 12.7 89 90 0.3 1.1 1018.2 0.0000 0.0000
06:50 14.7 13.1 90 90 0.3 1.1 1018.1 0.0000 0.0000
07:00 15 13.2 89 90 0.3 1.1 1018.1 0.0000 0.0000
07:09 15.2 13.4 89 90 0.3 0.8 1018.1 0.0000 0.0000
07:20 15.4 13.4 88 90 0.3 1.1 1018.1 0.0000 0.0000
07:30 15.6 13.6 88 90 0.3 1.1 1018.3 0.0000 0.0000
07:40 15.9 13.7 87 90 0.8 1.1 1018.3 0.0000 0.0000
07:50 16.2 13.9 86 58 0.3 1.1 1018.2 0.0000 0.0000
08:00 16.4 13.9 85 55 0.8 1.4 1018.3 0.0000 0.0000
08:10 16.6 13.9 84 60 0.8 1.4 1018.3 0.0000 0.0000
08:20 16.8 13.9 83 90 0.8 1.1 1018.5 0.0000 0.0000
08:31 16.9 13.8 82 90 0.3 1.1 1018.5 0.0000 0.0000
08:40 17.1 14 82 71 0.8 1.4 1018.5 0.0000 0.0000
08:50 17.3 14 81 71 0.8 1.1 1018.6 0.0000 0.0000
09:00 17.7 14.4 81 90 0.8 1.1 1018.6 0.0000 0.0000
09:11 18.1 14.4 79 90 0.8 1.1 1018.6 0.0000 0.0000
09:21 18.5 14.4 77 90 0.8 1.4 1018.6 0.0000 0.0000
09:30 18.8 14.5 76 66 0.8 1.1 1018.6 0.0000 0.0000
09:41 19.2 14.9 76 90 0.8 1.1 1018.6 0.0000 0.0000
09:51 19.4 14.7 74 90 0.8 1.1 1018.6 0.0000 0.0000
10:01 19.7 14.9 74 74 0.8 1.1 1018.5 0.0000 0.0000
10:11 20.4 15.2 72 90 0.3 1.1 1018.5 0.0000 0.0000
10:21 21 15.1 69 68 0.8 1.4 1018.3 0.0000 0.0000
10:31 21.8 15.4 67 90 0.8 1.4 1018.2 0.0000 0.0000
10:41 22.7 16 66 135 0.3 1.4 1018.1 0.0000 0.0000
10:51 23.8 16.3 63 120 0.8 1.7 1018 0.0000 0.0000
11:01 24.2 16 60 25 0.8 1.4 1018 0.0000 0.0000
11:12 24.7 16.4 60 90 0.3 1.4 1018.1 0.0000 0.0000
11:22 26 16.8 57 185 0.8 1.7 1017.9 0.0000 0.0000
11:33 27.3 17.2 54 315 0.8 1.7 1017.8 0.0000 0.0000
11:43 27.6 17.2 53 353 0.8 1.7 1017.6 0.0000 0.0000
11:53 28.4 17.9 53 90 0.8 1.7 1017.6 0.0000 0.0000
12:07 30.1 18.2 49 192 0.3 1.7 1017.3 0.0000 0.0000
12:16 30.9 18.3 47 196 0.8 2.5 1017.3 0.0000 0.0000
12:26 31.5 18.5 46 192 0.8 2.5 1017.1 0.0000 0.0000
12:37 32.2 18.4 44 201 0.8 1.7 1017 0.0000 0.0000
12:47 32.9 18.3 42 243 0.8 1.7 1016.8 0.0000 0.0000
12:56 32.9 18.3 42 180 0.8 1.4 1016.6 0.0000 0.0000
13:07 33.1 18.5 42 176 0.8 1.7 1016.5 0.0000 0.0000
13:17 33.5 18.8 42 202 0.8 2.2 1016.4 0.0000 0.0000
13:27 34 18.9 41 225 0.8 1.7 1016.3 0.0000 0.0000
13:37 34.6 18.6 39 270 0.3 1.7 1016.3 0.0000 0.0000
13:47 34.8 18.4 38 270 0.3 1.4 1016.1 0.0000 0.0000
13:57 35 18.1 37 270 0.8 2.2 1016 0.0000 0.0000
14:07 35.5 18.1 36 255 0.8 1.7 1015.8 0.0000 0.0000
14:17 36 17.7 34 242 0.8 2.5 1015.7 0.0000 0.0000
14:27 36.8 17.9 33 218 0.8 2.5 1015.7 0.0000 0.0000
14:37 37.5 18 32 198 0.8 2.5 1015.6 0.0000 0.0000
14:47 37.9 17.8 31 270 0.8 1.7 1015.6 0.0000 0.0000
14:58 37.8 17.8 31 246 0.8 1.7 1015.6 0.0000 0.0000
15:08 37.9 16.8 29 220 0.8 1.7 1015.6 0.0000 0.0000
15:17 38.1 17 29 222 0.8 2.2 1015.6 0.0000 0.0000
15:28 38.3 17.1 29 248 0.8 2.2 1015.6 0.0000 0.0000
15:38 38.4 17.8 30 200 0.8 2.2 1015.6 0.0000 0.0000
15:48 38.4 17.8 30 201 0.8 2.5 1015.6 0.0000 0.0000
15:58 38.3 17.1 29 210 0.8 2.5 1015.6 0.0000 0.0000
16:08 38.3 17.1 29 217 0.8 1.7 1015.7 0.0000 0.0000
16:18 38.5 16.8 28 232 0.8 2.5 1015.7 0.0000 0.0000
16:28 38.4 16.7 28 208 0.8 2.5 1015.6 0.0000 0.0000
16:38 38.3 16.6 28 230 0.8 2.8 1015.6 0.0000 0.0000
16:48 38.2 16.5 28 230 0.8 2.5 1015.6 0.0000 0.0000
16:58 37.9 16.8 29 208 0.8 1.7 1015.6 0.0000 0.0000
17:08 37.6 16.5 29 180 0.8 1.7 1015.6 0.0000 0.0000
17:19 37.1 16.1 29 156 0.8 2.8 1015.6 0.0000 0.0000
17:29 36.6 15.7 29 183 0.8 3.3 1015.5 0.0000 0.0000

TAGESSTATISTIK

2019-08-18
TEMPERATUR
MITTEL
23.4
MAXIMUM
38.5
16:18
MINIMUM
14.3
05:49
LUFTDRUCK
MITTEL
1017.5
MAXIMUM
1018.6
08:50
MINIMUM
1015.5
17:29
TAUPUNKT
MITTEL
15.1
MAXIMUM
18.9
13:27
MINIMUM
12.2
05:49
FEUCHTIGKEIT
MITTEL
65
MAXIMUM
90
06:50
MINIMUM
28
16:18
WINDSTÄRKE
MITTEL
0.6
MAXIMUM
0.8
01:28
WINDBÖE
MITTEL
1.5
MAXIMUM
3.3
17:29
WINDRICHTUNG
VORHERRSCHENDE
O
57.3%
N
1.0
NO
5.8
O
57.3
SO
2.9
S
12.6
SW
13.6
W
5.8
NW
1.0
NIEDERSCHLAG
REGEN STUNDE
0.0
REGEN TAG
0.0
TEMPERATUR (°C)
MINIMUM
14.3
MAXIMUM
38.5
MITTEL
23.4
LUFTDRUCK (hpa)
MINIMUM
1015.5
MAXIMUM
1018.6
MITTEL
1017.5
MESSGERÄT